Time;durP1;ratioP1;P1;durP2;ratioP2;P2;SDS_P1;SDS_P2;PMS_P1;PMS_P2;Temp;Humidity;BMP_temperature;BMP_pressure;BME280_temperature;BME280_humidity;BME280_pressure;Samples;Min_cycle;Max_cycle;Signal;HPM_P1;HPM_P2
2022/05/08 01:11:02;;;;;;;4.43;2.77;;;;;;;;;;4859579;29;20298;-90
2022/05/08 01:17:31;;;;;;;3.60;2.90;;;;;;;;;;4861357;29;20300;-87
2022/05/08 01:20:47;;;;;;;5.90;2.97;;;;;;;;;;4839344;29;20210;-91
2022/05/08 02:37:07;;;;;;;3.03;2.73;;;;;;;;;;4787427;29;20786;-89
2022/05/08 03:15:12;;;;;;;4.47;3.17;;;;;;;;;;5076971;28;20308;-90
2022/05/08 03:38:32;;;;;;;8.57;2.77;;;;;;;;;;4897632;29;20247;-89
2022/05/08 05:19:23;;;;;;;5.07;3.70;;;;;;;;;;4874947;29;20233;-88
2022/05/08 05:35:09;;;;;;;4.97;4.43;;;;;;;;;;4876299;29;20610;-89
2022/05/08 05:37:40;;;;;;;5.93;4.13;;;;;;;;;;4877470;29;20295;-90
2022/05/08 05:40:11;;;;;;;3.93;3.30;;;;;;;;;;4878361;29;20196;-91
2022/05/08 05:42:47;;;;;;;11.73;3.63;;;;;;;;;;4877522;29;20201;-89
2022/05/08 05:45:17;;;;;;;4.63;4.23;;;;;;;;;;4891396;29;20289;-89
2022/05/08 05:47:53;;;;;;;5.10;4.60;;;;;;;;;;4933595;29;20214;-89
2022/05/08 05:50:22;;;;;;;3.80;3.33;;;;;;;;;;4944841;28;20202;-90
2022/05/08 05:52:50;;;;;;;4.13;3.67;;;;;;;;;;5033017;28;20277;-86
2022/05/08 05:55:18;;;;;;;4.53;3.03;;;;;;;;;;5032587;28;20556;-86
2022/05/08 05:57:46;;;;;;;6.50;3.40;;;;;;;;;;5032602;28;20301;-86
2022/05/08 06:00:17;;;;;;;5.63;3.30;;;;;;;;;;5032480;28;20667;-86
2022/05/08 06:02:46;;;;;;;3.30;2.80;;;;;;;;;;5032062;28;20289;-86
2022/05/08 06:05:16;;;;;;;4.80;3.00;;;;;;;;;;5031936;28;20206;-86
2022/05/08 06:07:48;;;;;;;3.07;2.80;;;;;;;;;;5031983;28;20282;-86
2022/05/08 06:10:16;;;;;;;3.47;3.17;;;;;;;;;;5031901;28;20202;-85
2022/05/08 06:12:46;;;;;;;3.23;2.93;;;;;;;;;;5031889;28;20289;-86
2022/05/08 06:15:14;;;;;;;4.70;3.37;;;;;;;;;;5032611;28;20206;-86
2022/05/08 06:17:41;;;;;;;5.30;3.43;;;;;;;;;;5031891;28;20201;-84
2022/05/08 06:20:17;;;;;;;6.03;3.67;;;;;;;;;;5039330;28;20237;-86
2022/05/08 06:22:49;;;;;;;6.00;3.17;;;;;;;;;;5051617;28;20196;-87
2022/05/08 06:25:16;;;;;;;6.57;3.53;;;;;;;;;;5052312;28;20280;-87
2022/05/08 06:27:43;;;;;;;3.13;2.83;;;;;;;;;;5052265;28;20666;-86
2022/05/08 06:30:16;;;;;;;5.67;3.50;;;;;;;;;;5052015;28;20220;-89
2022/05/08 06:32:44;;;;;;;3.53;2.97;;;;;;;;;;5051961;28;20602;-88
2022/05/08 06:35:14;;;;;;;4.30;3.43;;;;;;;;;;5052189;28;20190;-86
2022/05/08 06:37:41;;;;;;;7.10;3.43;;;;;;;;;;5051686;28;20285;-86
2022/05/08 06:40:11;;;;;;;7.77;3.93;;;;;;;;;;5051573;28;20201;-86
2022/05/08 06:42:40;;;;;;;4.47;3.00;;;;;;;;;;5054992;28;20273;-86
2022/05/08 06:45:17;;;;;;;3.30;3.00;;;;;;;;;;5055899;28;20198;-86
2022/05/08 06:47:45;;;;;;;3.57;2.90;;;;;;;;;;5055819;28;20194;-86
2022/05/08 06:50:12;;;;;;;4.10;2.50;;;;;;;;;;5055840;28;20194;-87
2022/05/08 06:52:39;;;;;;;5.57;2.67;;;;;;;;;;5056163;28;20279;-86
2022/05/08 06:55:08;;;;;;;5.33;2.50;;;;;;;;;;5055845;28;20217;-86
2022/05/08 06:57:36;;;;;;;4.93;2.97;;;;;;;;;;5055523;28;20273;-86
2022/05/08 07:02:50;;;;;;;3.27;2.97;;;;;;;;;;5055593;28;20181;-86
2022/05/08 07:05:21;;;;;;;8.97;3.40;;;;;;;;;;5055383;28;20206;-86
2022/05/08 07:07:48;;;;;;;7.37;3.53;;;;;;;;;;5055825;28;20202;-86
2022/05/08 07:10:21;;;;;;;3.17;2.83;;;;;;;;;;5055629;28;20194;-85
2022/05/08 07:12:50;;;;;;;3.47;2.67;;;;;;;;;;5055584;28;20660;-86
2022/05/08 07:15:17;;;;;;;9.40;5.63;;;;;;;;;;5054946;28;20320;-85
2022/05/08 07:17:48;;;;;;;3.33;2.93;;;;;;;;;;5055367;28;20636;-85
2022/05/08 07:20:18;;;;;;;5.40;2.80;;;;;;;;;;5054847;28;20235;-86
2022/05/08 07:22:48;;;;;;;14.60;4.00;;;;;;;;;;5054696;28;20692;-86
2022/05/08 07:25:15;;;;;;;3.83;3.00;;;;;;;;;;5054729;28;20230;-85
2022/05/08 07:27:43;;;;;;;3.50;3.20;;;;;;;;;;5055262;28;20581;-86
2022/05/08 07:30:17;;;;;;;3.50;3.20;;;;;;;;;;5054400;28;20198;-86
2022/05/08 07:32:48;;;;;;;7.93;3.63;;;;;;;;;;5054758;28;20220;-85
2022/05/08 07:38:08;;;;;;;3.37;3.00;;;;;;;;;;5055702;28;20181;-84
2022/05/08 07:40:36;;;;;;;3.47;3.03;;;;;;;;;;5060111;28;20201;-85
2022/05/08 07:43:06;;;;;;;6.53;3.20;;;;;;;;;;5054441;28;20244;-85
2022/05/08 07:45:35;;;;;;;6.93;3.10;;;;;;;;;;5054714;28;20639;-85
2022/05/08 07:48:02;;;;;;;5.20;2.97;;;;;;;;;;5054407;28;20285;-85
2022/05/08 07:50:29;;;;;;;5.13;3.47;;;;;;;;;;5054142;28;20670;-85
2022/05/08 07:52:57;;;;;;;3.30;2.67;;;;;;;;;;5054020;28;20292;-85
2022/05/08 07:55:28;;;;;;;4.17;3.20;;;;;;;;;;5073206;28;20229;-85
2022/05/08 07:57:55;;;;;;;4.73;3.13;;;;;;;;;;5074535;28;20262;-85
2022/05/08 08:00:25;;;;;;;6.33;3.43;;;;;;;;;;5073919;28;20194;-85
2022/05/08 08:02:54;;;;;;;6.60;3.00;;;;;;;;;;5074031;28;20229;-85
2022/05/08 08:05:30;;;;;;;5.90;3.20;;;;;;;;;;5074077;28;20193;-85
2022/05/08 08:07:58;;;;;;;6.40;3.33;;;;;;;;;;5074048;28;20216;-85
2022/05/08 08:10:25;;;;;;;6.67;3.63;;;;;;;;;;5074464;28;20197;-85
2022/05/08 08:12:52;;;;;;;6.13;3.43;;;;;;;;;;5073664;28;20229;-84
2022/05/08 08:15:19;;;;;;;8.27;3.23;;;;;;;;;;5073308;28;20224;-85
2022/05/08 08:17:46;;;;;;;7.43;4.03;;;;;;;;;;5073910;28;20291;-85
2022/05/08 08:20:18;;;;;;;6.43;3.90;;;;;;;;;;5073450;28;20654;-85
2022/05/08 08:22:45;;;;;;;5.40;3.80;;;;;;;;;;5073453;28;20284;-85
2022/05/08 08:25:13;;;;;;;4.30;2.77;;;;;;;;;;5073941;28;20249;-85
2022/05/08 08:27:40;;;;;;;6.33;3.20;;;;;;;;;;5073793;28;20210;-86
2022/05/08 08:30:16;;;;;;;4.97;3.20;;;;;;;;;;5073367;28;20228;-86
2022/05/08 08:32:43;;;;;;;4.87;3.00;;;;;;;;;;5073476;28;20204;-85
2022/05/08 08:35:10;;;;;;;7.70;3.97;;;;;;;;;;5073261;28;20218;-86
2022/05/08 08:37:39;;;;;;;6.50;3.37;;;;;;;;;;5073688;28;20281;-85
2022/05/08 08:40:07;;;;;;;9.77;5.77;;;;;;;;;;5073626;28;20203;-85
2022/05/08 08:42:35;;;;;;;5.70;3.43;;;;;;;;;;5064912;28;20217;-85
2022/05/08 08:47:53;;;;;;;3.20;2.90;;;;;;;;;;5053660;28;20319;-86
2022/05/08 08:50:26;;;;;;;3.77;3.40;;;;;;;;;;5053109;28;20721;-85
2022/05/08 08:52:55;;;;;;;5.80;2.50;;;;;;;;;;5053032;28;20275;-86
2022/05/08 08:55:22;;;;;;;4.80;3.10;;;;;;;;;;5052958;28;20278;-85
2022/05/08 08:57:55;;;;;;;4.23;3.60;;;;;;;;;;5053336;28;20254;-86
2022/05/08 09:00:26;;;;;;;6.27;3.30;;;;;;;;;;5052890;28;20736;-85
2022/05/08 09:02:55;;;;;;;3.93;3.10;;;;;;;;;;5052903;28;20299;-85
2022/05/08 09:05:23;;;;;;;6.17;3.17;;;;;;;;;;5052089;28;20235;-85
2022/05/08 09:07:52;;;;;;;8.07;2.93;;;;;;;;;;5052885;28;20200;-86
2022/05/08 09:10:23;;;;;;;3.83;2.93;;;;;;;;;;5053045;28;20240;-86
2022/05/08 09:13:14;;;;;;;3.53;2.90;;;;;;;;;;5052937;28;20212;-85
2022/05/08 09:15:41;;;;;;;5.20;3.50;;;;;;;;;;4972035;28;20315;-85
2022/05/08 09:18:10;;;;;;;3.03;2.70;;;;;;;;;;4972316;28;20232;-86
2022/05/08 09:20:39;;;;;;;7.77;2.90;;;;;;;;;;4971965;28;20239;-85
2022/05/08 09:23:14;;;;;;;3.13;2.73;;;;;;;;;;4971776;28;20200;-86
2022/05/08 09:25:51;;;;;;;5.03;2.70;;;;;;;;;;4971828;28;20201;-85
2022/05/08 09:28:19;;;;;;;4.10;2.73;;;;;;;;;;4974529;28;20208;-86
2022/05/08 09:31:00;;;;;;;7.80;3.03;;;;;;;;;;4975864;28;20199;-84
2022/05/08 09:33:29;;;;;;;3.53;2.80;;;;;;;;;;4971531;28;20208;-85
2022/05/08 09:35:57;;;;;;;5.30;2.93;;;;;;;;;;4971858;28;20306;-85
2022/05/08 09:38:41;;;;;;;2.90;2.70;;;;;;;;;;4977064;28;20208;-85
2022/05/08 09:41:10;;;;;;;4.10;3.50;;;;;;;;;;4991027;28;20188;-84
2022/05/08 09:43:37;;;;;;;4.07;2.77;;;;;;;;;;4991000;28;20235;-85
2022/05/08 09:46:05;;;;;;;4.30;2.93;;;;;;;;;;4990804;28;20196;-85
2022/05/08 09:48:34;;;;;;;5.90;3.70;;;;;;;;;;4991110;28;20323;-85
2022/05/08 09:51:02;;;;;;;3.13;2.20;;;;;;;;;;4990934;28;20644;-85
2022/05/08 09:53:30;;;;;;;4.80;2.70;;;;;;;;;;5072262;28;20696;-85
2022/05/08 09:55:58;;;;;;;4.70;3.10;;;;;;;;;;5071696;28;20414;-85
2022/05/08 09:58:27;;;;;;;4.27;2.90;;;;;;;;;;5071910;28;20228;-85
2022/05/08 10:00:56;;;;;;;4.50;3.33;;;;;;;;;;5071827;28;20239;-85
2022/05/08 10:03:24;;;;;;;4.30;2.53;;;;;;;;;;5071812;28;20691;-85
2022/05/08 10:05:51;;;;;;;3.80;2.60;;;;;;;;;;5071987;28;20250;-85
2022/05/08 10:08:22;;;;;;;7.87;2.77;;;;;;;;;;5071812;28;20685;-84
2022/05/08 10:13:56;;;;;;;4.90;3.20;;;;;;;;;;5072099;28;20192;-84
2022/05/08 10:17:02;;;;;;;5.53;2.60;;;;;;;;;;5071830;28;20217;-84
2022/05/08 10:19:59;;;;;;;5.27;2.83;;;;;;;;;;5056783;28;20204;-84
2022/05/08 10:22:26;;;;;;;4.87;3.30;;;;;;;;;;5069391;28;20287;-85
2022/05/08 10:24:56;;;;;;;3.40;2.93;;;;;;;;;;5071557;28;20570;-85
2022/05/08 10:27:28;;;;;;;6.53;2.93;;;;;;;;;;5072010;28;20200;-85
2022/05/08 10:30:31;;;;;;;5.53;2.70;;;;;;;;;;5069809;28;20559;-86
2022/05/08 10:33:01;;;;;;;4.90;3.27;;;;;;;;;;5071661;28;20731;-85
2022/05/08 10:35:30;;;;;;;5.80;3.73;;;;;;;;;;5071538;28;20225;-85
2022/05/08 10:38:22;;;;;;;3.83;2.50;;;;;;;;;;5071824;28;20688;-85
2022/05/08 10:40:50;;;;;;;4.40;3.63;;;;;;;;;;5071337;28;20197;-86
2022/05/08 10:43:28;;;;;;;3.70;2.70;;;;;;;;;;5071724;28;20255;-85
2022/05/08 10:45:56;;;;;;;4.40;2.27;;;;;;;;;;5071808;28;20649;-85
2022/05/08 10:48:30;;;;;;;3.40;2.50;;;;;;;;;;5071625;28;20193;-86
2022/05/08 10:50:59;;;;;;;3.37;2.57;;;;;;;;;;5071648;28;20224;-85
2022/05/08 10:53:28;;;;;;;2.93;2.73;;;;;;;;;;5071614;28;20708;-85
2022/05/08 10:56:05;;;;;;;3.13;2.70;;;;;;;;;;5071567;28;20225;-86
2022/05/08 10:58:33;;;;;;;6.60;2.83;;;;;;;;;;5071562;28;20197;-85
2022/05/08 11:01:02;;;;;;;5.03;2.60;;;;;;;;;;5071404;28;20198;-85
2022/05/08 11:03:30;;;;;;;3.93;2.47;;;;;;;;;;5071686;28;20193;-86
2022/05/08 11:06:01;;;;;;;13.60;3.10;;;;;;;;;;5071600;28;20698;-85
2022/05/08 11:08:31;;;;;;;2.73;2.10;;;;;;;;;;5071112;28;20244;-85
2022/05/08 11:11:02;;;;;;;2.57;2.10;;;;;;;;;;5071408;28;20293;-85
2022/05/08 11:13:42;;;;;;;3.30;1.90;;;;;;;;;;5071067;28;20186;-85
2022/05/08 11:16:09;;;;;;;4.27;2.40;;;;;;;;;;5071092;28;20201;-84
2022/05/08 11:18:38;;;;;;;4.87;2.20;;;;;;;;;;5071167;28;20201;-84
2022/05/08 11:21:09;;;;;;;3.23;2.40;;;;;;;;;;5070887;28;20233;-85
2022/05/08 11:23:41;;;;;;;2.43;2.17;;;;;;;;;;5070824;28;20250;-84
2022/05/08 11:26:10;;;;;;;3.10;2.43;;;;;;;;;;5071090;28;20715;-85
2022/05/08 11:28:46;;;;;;;2.60;2.40;;;;;;;;;;5073264;28;20208;-84
2022/05/08 11:31:17;;;;;;;4.23;2.50;;;;;;;;;;5074593;28;20222;-84
2022/05/08 11:36:36;;;;;;;2.57;1.90;;;;;;;;;;5074467;28;20208;-84
2022/05/08 11:39:05;;;;;;;4.57;2.50;;;;;;;;;;5074071;28;20674;-83
2022/05/08 11:41:36;;;;;;;4.67;2.20;;;;;;;;;;5074754;28;20201;-84
2022/05/08 11:44:20;;;;;;;4.90;2.20;;;;;;;;;;5074275;28;20208;-85
2022/05/08 11:46:48;;;;;;;3.43;2.37;;;;;;;;;;5074740;28;20189;-85
2022/05/08 11:49:19;;;;;;;2.20;2.00;;;;;;;;;;5073817;28;20247;-84
2022/05/08 11:51:47;;;;;;;3.70;2.23;;;;;;;;;;5073932;28;20280;-84
2022/05/08 11:54:23;;;;;;;2.37;2.13;;;;;;;;;;5073974;28;20204;-84
2022/05/08 11:56:51;;;;;;;3.90;2.80;;;;;;;;;;5074428;28;20219;-85
2022/05/08 11:59:21;;;;;;;4.37;2.20;;;;;;;;;;5074344;28;20207;-84
2022/05/08 12:01:50;;;;;;;3.67;2.50;;;;;;;;;;5074340;28;20587;-85
2022/05/08 12:04:26;;;;;;;2.10;1.90;;;;;;;;;;5074014;28;20218;-84
2022/05/08 12:07:02;;;;;;;2.90;2.20;;;;;;;;;;5073745;28;20227;-85
2022/05/08 12:09:30;;;;;;;3.73;2.10;;;;;;;;;;5073762;28;20211;-84
2022/05/08 12:11:58;;;;;;;2.50;2.20;;;;;;;;;;5073896;28;20197;-85
2022/05/08 12:14:40;;;;;;;3.07;2.10;;;;;;;;;;5073334;28;20291;-85
2022/05/08 12:17:10;;;;;;;2.50;2.30;;;;;;;;;;5073770;28;20203;-84
2022/05/08 12:19:39;;;;;;;2.63;2.43;;;;;;;;;;5073683;28;20320;-84
2022/05/08 12:22:18;;;;;;;4.27;2.57;;;;;;;;;;5072933;28;20197;-84
2022/05/08 12:24:45;;;;;;;3.70;2.40;;;;;;;;;;5073315;28;20572;-85
2022/05/08 12:27:12;;;;;;;2.47;2.10;;;;;;;;;;5071577;28;20670;-84
2022/05/08 12:29:43;;;;;;;3.03;1.90;;;;;;;;;;5062708;28;20588;-84
2022/05/08 12:32:11;;;;;;;3.10;2.10;;;;;;;;;;5073411;28;20243;-84
2022/05/08 12:34:41;;;;;;;4.40;2.50;;;;;;;;;;5072726;28;20196;-83
2022/05/08 12:37:11;;;;;;;3.97;2.00;;;;;;;;;;5072402;28;20192;-83
2022/05/08 12:39:42;;;;;;;2.20;2.00;;;;;;;;;;5071050;28;20580;-84
2022/05/08 12:42:11;;;;;;;4.10;2.37;;;;;;;;;;5073056;28;20208;-84
2022/05/08 12:44:39;;;;;;;5.03;2.20;;;;;;;;;;5072948;28;20295;-84
2022/05/08 12:47:07;;;;;;;4.00;2.50;;;;;;;;;;5072750;28;20193;-83
2022/05/08 12:49:40;;;;;;;2.70;2.20;;;;;;;;;;5072875;28;20200;-84
2022/05/08 12:52:17;;;;;;;3.17;2.70;;;;;;;;;;5068527;28;20205;-84
2022/05/08 12:54:44;;;;;;;2.00;1.80;;;;;;;;;;5072872;28;20284;-84
2022/05/08 12:59:42;;;;;;;4.47;2.10;;;;;;;;;;5072911;28;20240;-84
2022/05/08 13:00:02;;;;;;;4.33;2.60;;;;;;;;;;5071718;28;20254;-84
2022/05/08 13:02:30;;;;;;;3.23;2.03;;;;;;;;;;5072953;28;20274;-84
2022/05/08 13:04:59;;;;;;;2.30;2.10;;;;;;;;;;5072570;28;20208;-84
2022/05/08 13:07:27;;;;;;;3.50;2.13;;;;;;;;;;5072768;28;20680;-84
2022/05/08 13:09:57;;;;;;;2.30;2.10;;;;;;;;;;5069747;28;20200;-84
2022/05/08 13:12:24;;;;;;;2.50;2.27;;;;;;;;;;5071801;28;20605;-84
2022/05/08 13:14:51;;;;;;;5.80;2.03;;;;;;;;;;5072916;28;20231;-85
2022/05/08 13:17:18;;;;;;;6.00;2.37;;;;;;;;;;5072580;28;20195;-85
2022/05/08 13:19:46;;;;;;;4.27;2.37;;;;;;;;;;5072680;28;20229;-84
2022/05/08 13:22:14;;;;;;;2.67;1.70;;;;;;;;;;5062236;28;20210;-85
2022/05/08 13:24:41;;;;;;;2.93;2.20;;;;;;;;;;5052507;28;20197;-85
2022/05/08 13:27:09;;;;;;;6.50;2.67;;;;;;;;;;5052542;28;20197;-84
2022/05/08 13:29:36;;;;;;;2.77;2.10;;;;;;;;;;5052668;28;20202;-85
2022/05/08 13:32:03;;;;;;;3.87;1.97;;;;;;;;;;5071017;28;20203;-84
2022/05/08 13:34:31;;;;;;;2.73;2.43;;;;;;;;;;5072364;28;20193;-85
2022/05/08 13:36:58;;;;;;;3.50;2.17;;;;;;;;;;5072221;28;20233;-85
2022/05/08 13:39:27;;;;;;;3.00;2.33;;;;;;;;;;5071185;28;20612;-85
2022/05/08 13:41:55;;;;;;;3.90;3.50;;;;;;;;;;5071775;28;20219;-83
2022/05/08 13:44:23;;;;;;;5.20;3.37;;;;;;;;;;5055647;28;20293;-84
2022/05/08 13:46:52;;;;;;;4.87;2.60;;;;;;;;;;5052049;28;20209;-84
2022/05/08 13:49:19;;;;;;;3.30;3.00;;;;;;;;;;5051959;28;20206;-85
2022/05/08 13:51:46;;;;;;;2.40;2.20;;;;;;;;;;5051943;28;20202;-84
2022/05/08 13:54:16;;;;;;;3.47;3.17;;;;;;;;;;5052316;28;20201;-84
2022/05/08 13:56:45;;;;;;;1.83;1.60;;;;;;;;;;5052218;28;20224;-85
2022/05/08 13:59:15;;;;;;;6.27;2.13;;;;;;;;;;5052080;28;20202;-84
2022/05/08 14:01:42;;;;;;;2.27;1.90;;;;;;;;;;5051971;28;20237;-85
2022/05/08 14:04:10;;;;;;;3.07;1.73;;;;;;;;;;5052181;28;20636;-84
2022/05/08 14:06:38;;;;;;;2.73;1.87;;;;;;;;;;5052210;28;20230;-84
2022/05/08 14:09:05;;;;;;;3.13;2.83;;;;;;;;;;5051963;28;20198;-84
2022/05/08 14:11:32;;;;;;;4.17;2.00;;;;;;;;;;5052100;28;20198;-85
2022/05/08 14:14:02;;;;;;;3.00;2.33;;;;;;;;;;5058930;28;20196;-84
2022/05/08 14:16:29;;;;;;;3.73;2.27;;;;;;;;;;5072009;28;20710;-85
2022/05/08 14:18:56;;;;;;;2.03;1.80;;;;;;;;;;5071729;28;20200;-85
2022/05/08 14:21:23;;;;;;;2.30;2.03;;;;;;;;;;5071364;28;20238;-84
2022/05/08 14:23:50;;;;;;;3.97;2.37;;;;;;;;;;5071757;28;20197;-84
2022/05/08 14:26:17;;;;;;;5.43;2.73;;;;;;;;;;5071734;28;20205;-84
2022/05/08 14:28:46;;;;;;;7.17;3.00;;;;;;;;;;5071692;28;20193;-85
2022/05/08 14:36:42;;;;;;;3.23;2.53;;;;;;;;;;5040653;28;20274;-85
2022/05/08 14:39:13;;;;;;;1.97;1.73;;;;;;;;;;5071183;28;20212;-84
2022/05/08 14:41:40;;;;;;;3.03;1.70;;;;;;;;;;5071478;28;20689;-85
2022/05/08 14:44:07;;;;;;;4.83;1.70;;;;;;;;;;5071377;28;20193;-84
2022/05/08 14:46:36;;;;;;;3.13;1.50;;;;;;;;;;5071028;28;20211;-84
2022/05/08 14:49:07;;;;;;;2.23;1.73;;;;;;;;;;5071362;28;20208;-84
2022/05/08 14:51:34;;;;;;;2.90;1.77;;;;;;;;;;5057824;28;20260;-84
2022/05/08 14:54:01;;;;;;;2.53;2.20;;;;;;;;;;5051607;28;20198;-84
2022/05/08 14:56:29;;;;;;;4.90;3.97;;;;;;;;;;5055598;28;20229;-85
2022/05/08 14:58:57;;;;;;;10.10;6.80;;;;;;;;;;5071188;28;20204;-83
2022/05/08 15:01:24;;;;;;;5.60;3.83;;;;;;;;;;5071467;28;20272;-84
2022/05/08 15:03:53;;;;;;;4.50;3.33;;;;;;;;;;5074209;28;20196;-84
2022/05/08 15:06:21;;;;;;;2.30;2.10;;;;;;;;;;5055205;28;20250;-84
2022/05/08 15:08:48;;;;;;;1.97;1.77;;;;;;;;;;5055265;28;20208;-83
2022/05/08 15:11:18;;;;;;;2.00;1.80;;;;;;;;;;5055160;28;20198;-84
2022/05/08 15:13:45;;;;;;;5.33;2.30;;;;;;;;;;5055312;28;20229;-84
2022/05/08 15:16:12;;;;;;;2.07;1.70;;;;;;;;;;5054433;28;20650;-84
2022/05/08 15:21:22;;;;;;;1.80;1.67;;;;;;;;;;5050799;28;20241;-85
2022/05/08 15:23:49;;;;;;;2.93;2.03;;;;;;;;;;5054955;28;20197;-83
2022/05/08 15:26:17;;;;;;;3.93;2.13;;;;;;;;;;5054962;28;20693;-84
2022/05/08 15:28:45;;;;;;;3.60;1.77;;;;;;;;;;5054534;28;20193;-84
2022/05/08 15:31:12;;;;;;;3.17;2.00;;;;;;;;;;5054925;28;20193;-85
2022/05/08 15:33:42;;;;;;;1.67;1.40;;;;;;;;;;5054344;28;20197;-84
2022/05/08 15:36:09;;;;;;;2.23;2.03;;;;;;;;;;5054638;28;20268;-85
2022/05/08 15:38:38;;;;;;;3.00;1.80;;;;;;;;;;5054574;28;20198;-85
2022/05/08 15:41:05;;;;;;;4.53;2.13;;;;;;;;;;5054489;28;20198;-84
2022/05/08 15:43:37;;;;;;;6.20;3.10;;;;;;;;;;5054510;28;20190;-84
2022/05/08 15:46:05;;;;;;;5.97;2.50;;;;;;;;;;5054536;28;20248;-85
2022/05/08 15:48:47;;;;;;;7.77;4.07;;;;;;;;;;5054149;28;20209;-84
2022/05/08 15:51:19;;;;;;;2.97;2.47;;;;;;;;;;5054376;28;20208;-84
2022/05/08 15:53:47;;;;;;;6.80;2.60;;;;;;;;;;5054271;28;20208;-84
2022/05/08 15:56:17;;;;;;;3.30;2.37;;;;;;;;;;5053791;28;20225;-83
2022/05/08 15:58:45;;;;;;;3.10;2.07;;;;;;;;;;5053982;28;20202;-83
2022/05/08 16:01:12;;;;;;;2.47;2.27;;;;;;;;;;5053992;28;20190;-83
2022/05/08 16:03:39;;;;;;;3.83;3.23;;;;;;;;;;5053866;28;20702;-83
2022/05/08 16:06:07;;;;;;;10.07;5.37;;;;;;;;;;5054249;28;20666;-83
2022/05/08 16:08:34;;;;;;;9.90;5.67;;;;;;;;;;5053886;28;20682;-84
2022/05/08 16:11:03;;;;;;;7.03;5.07;;;;;;;;;;5053811;28;20212;-84
2022/05/08 16:24:30;;;;;;;8.63;4.50;;;;;;;;;;5053820;28;20192;-84
2022/05/08 16:27:02;;;;;;;3.93;3.50;;;;;;;;;;5053502;28;20207;-85
2022/05/08 16:29:29;;;;;;;6.13;3.83;;;;;;;;;;5053678;28;20207;-85
2022/05/08 16:31:56;;;;;;;8.03;3.03;;;;;;;;;;5053503;28;20200;-86
2022/05/08 16:34:24;;;;;;;7.00;2.40;;;;;;;;;;5053823;28;20201;-85
2022/05/08 16:36:51;;;;;;;2.70;2.10;;;;;;;;;;5053058;28;20233;-85
2022/05/08 16:39:18;;;;;;;34.47;27.63;;;;;;;;;;5063340;28;20204;-85
2022/05/08 16:41:46;;;;;;;16.80;13.43;;;;;;;;;;5073709;28;20204;-85
2022/05/08 16:44:19;;;;;;;5.33;3.47;;;;;;;;;;5072992;28;20208;-85
2022/05/08 16:46:46;;;;;;;4.30;2.80;;;;;;;;;;5073636;28;20276;-85
2022/05/08 16:49:14;;;;;;;9.60;2.37;;;;;;;;;;5073254;28;20201;-84
2022/05/08 16:51:41;;;;;;;9.63;2.57;;;;;;;;;;5073216;28;20185;-85
2022/05/08 16:54:08;;;;;;;4.47;1.80;;;;;;;;;;5072947;28;20201;-85
2022/05/08 16:56:36;;;;;;;3.03;2.17;;;;;;;;;;5072801;28;20315;-85
2022/05/08 16:59:03;;;;;;;6.53;2.27;;;;;;;;;;5072897;28;20204;-85
2022/05/08 17:01:31;;;;;;;3.60;1.90;;;;;;;;;;5073257;28;20197;-84
2022/05/08 17:03:59;;;;;;;2.30;1.70;;;;;;;;;;5072704;28;20193;-85
2022/05/08 17:06:26;;;;;;;2.27;1.83;;;;;;;;;;5072746;28;20703;-85
2022/05/08 17:08:54;;;;;;;4.40;1.87;;;;;;;;;;5073050;28;20208;-84
2022/05/08 17:11:21;;;;;;;9.10;2.27;;;;;;;;;;5072798;28;20201;-85
2022/05/08 17:13:48;;;;;;;2.83;1.87;;;;;;;;;;5072689;28;20208;-85
2022/05/08 17:16:15;;;;;;;7.23;3.77;;;;;;;;;;5072654;28;20208;-85
2022/05/08 17:18:44;;;;;;;6.37;5.70;;;;;;;;;;5072602;28;20221;-85
2022/05/08 17:21:11;;;;;;;11.00;9.87;;;;;;;;;;5072477;28;20717;-84
2022/05/08 17:23:38;;;;;;;4.50;4.10;;;;;;;;;;5072559;28;20197;-85
2022/05/08 17:26:06;;;;;;;11.47;8.90;;;;;;;;;;5071639;28;20288;-84
2022/05/08 17:28:48;;;;;;;97.83;64.37;;;;;;;;;;5072504;28;20233;-85
2022/05/08 17:31:18;;;;;;;38.93;24.57;;;;;;;;;;5072246;28;20181;-85
2022/05/08 17:33:48;;;;;;;99.77;49.37;;;;;;;;;;5072233;28;20279;-83
2022/05/08 17:36:15;;;;;;;44.87;28.03;;;;;;;;;;5072368;28;20594;-83
2022/05/08 17:38:42;;;;;;;14.03;9.27;;;;;;;;;;5072633;28;20205;-82
2022/05/08 17:41:12;;;;;;;5.43;4.00;;;;;;;;;;5072146;28;20197;-82
2022/05/08 17:43:40;;;;;;;4.67;2.77;;;;;;;;;;5072113;28;20266;-85
2022/05/08 17:46:07;;;;;;;2.90;2.40;;;;;;;;;;5072469;28;20582;-85
2022/05/08 17:48:35;;;;;;;4.37;3.03;;;;;;;;;;5072162;28;20195;-84
2022/05/08 17:51:04;;;;;;;4.60;2.50;;;;;;;;;;5072358;28;20574;-85
2022/05/08 17:53:31;;;;;;;5.70;2.70;;;;;;;;;;5072133;28;20204;-85
2022/05/08 17:56:00;;;;;;;2.80;2.20;;;;;;;;;;5071772;28;20292;-84
2022/05/08 17:58:29;;;;;;;3.70;2.90;;;;;;;;;;5071944;28;20701;-85
2022/05/08 18:00:57;;;;;;;4.40;2.10;;;;;;;;;;5072277;28;20279;-85
2022/05/08 18:06:10;;;;;;;3.90;2.30;;;;;;;;;;5072028;28;20176;-85
2022/05/08 18:08:38;;;;;;;4.87;4.47;;;;;;;;;;5072071;28;20198;-84
2022/05/08 18:11:07;;;;;;;5.13;3.30;;;;;;;;;;5071827;28;20192;-85
2022/05/08 18:13:34;;;;;;;7.83;3.03;;;;;;;;;;5071847;28;20201;-85
2022/05/08 18:16:03;;;;;;;5.17;2.80;;;;;;;;;;5072187;28;20207;-85
2022/05/08 18:18:30;;;;;;;3.60;2.20;;;;;;;;;;5071804;28;20221;-84
2022/05/08 18:20:58;;;;;;;3.87;2.87;;;;;;;;;;5071520;28;20229;-85
2022/05/08 18:23:27;;;;;;;5.03;2.77;;;;;;;;;;5071874;28;20201;-85
2022/05/08 18:25:54;;;;;;;4.83;2.23;;;;;;;;;;5071844;28;20203;-85
2022/05/08 18:28:22;;;;;;;4.10;2.43;;;;;;;;;;5071558;28;20201;-84
2022/05/08 18:30:49;;;;;;;3.30;2.50;;;;;;;;;;5070481;28;20204;-85
2022/05/08 18:33:16;;;;;;;4.40;3.97;;;;;;;;;;5071067;28;20868;-84
2022/05/08 18:35:44;;;;;;;11.63;9.43;;;;;;;;;;5070767;28;20196;-84
2022/05/08 18:38:11;;;;;;;10.13;7.87;;;;;;;;;;5074147;28;20228;-84
2022/05/08 18:40:40;;;;;;;10.07;6.27;;;;;;;;;;5074592;28;20208;-84
2022/05/08 18:43:08;;;;;;;3.33;2.60;;;;;;;;;;5074358;28;20292;-85
2022/05/08 18:45:35;;;;;;;3.63;2.37;;;;;;;;;;5074570;28;20247;-85
2022/05/08 18:48:02;;;;;;;2.73;2.00;;;;;;;;;;5074482;28;20215;-82
2022/05/08 18:50:33;;;;;;;2.93;2.00;;;;;;;;;;5074747;28;20284;-82
2022/05/08 18:53:00;;;;;;;3.30;1.87;;;;;;;;;;5074936;28;20189;-82
2022/05/08 18:55:28;;;;;;;4.50;1.87;;;;;;;;;;5074808;28;20189;-84
2022/05/08 18:57:57;;;;;;;3.47;2.00;;;;;;;;;;5074041;28;20290;-83
2022/05/08 19:00:25;;;;;;;4.47;3.40;;;;;;;;;;5074306;28;20204;-84
2022/05/08 19:02:52;;;;;;;4.53;2.80;;;;;;;;;;5074337;28;20802;-84
2022/05/08 19:05:19;;;;;;;7.47;5.23;;;;;;;;;;5074639;28;20303;-84
2022/05/08 19:07:46;;;;;;;5.00;3.00;;;;;;;;;;5074158;28;20189;-85
2022/05/08 19:10:13;;;;;;;5.77;3.80;;;;;;;;;;5073685;28;20197;-85
2022/05/08 19:12:40;;;;;;;5.33;2.00;;;;;;;;;;5073940;28;20192;-85
2022/05/08 19:15:11;;;;;;;2.03;1.47;;;;;;;;;;5074481;28;20208;-82
2022/05/08 19:17:38;;;;;;;1.73;1.40;;;;;;;;;;5074455;28;20292;-82
2022/05/08 19:20:08;;;;;;;4.00;1.53;;;;;;;;;;5073840;28;20351;-82
2022/05/08 19:22:37;;;;;;;1.90;1.80;;;;;;;;;;5073717;28;20189;-82
2022/05/08 19:25:04;;;;;;;1.87;1.77;;;;;;;;;;5073821;28;20193;-82
2022/05/08 19:27:32;;;;;;;2.13;1.57;;;;;;;;;;5073899;28;20193;-82
2022/05/08 19:29:59;;;;;;;1.80;1.70;;;;;;;;;;5073707;28;20674;-82
2022/05/08 19:38:08;;;;;;;2.50;1.80;;;;;;;;;;5064269;28;20758;-82
2022/05/08 19:40:35;;;;;;;3.63;1.87;;;;;;;;;;5073594;28;20203;-83
2022/05/08 19:43:03;;;;;;;1.87;1.73;;;;;;;;;;5073628;28;20197;-83
2022/05/08 19:45:30;;;;;;;1.93;1.50;;;;;;;;;;5073478;28;20250;-82
2022/05/08 19:47:59;;;;;;;3.53;1.60;;;;;;;;;;5072926;28;20208;-82
2022/05/08 19:50:26;;;;;;;3.30;1.43;;;;;;;;;;5073269;28;20576;-83
2022/05/08 19:52:53;;;;;;;1.13;1.03;;;;;;;;;;5073396;28;20197;-85
2022/05/08 19:55:21;;;;;;;2.00;1.30;;;;;;;;;;5073320;28;20735;-83
2022/05/08 19:57:49;;;;;;;3.63;2.23;;;;;;;;;;5073793;28;20604;-82
2022/05/08 20:00:17;;;;;;;3.47;1.60;;;;;;;;;;5073040;28;20199;-83
2022/05/08 20:02:45;;;;;;;3.20;1.33;;;;;;;;;;5072772;28;20251;-82
2022/05/08 20:05:14;;;;;;;1.67;1.57;;;;;;;;;;5059191;28;20216;-83
2022/05/08 20:07:45;;;;;;;2.17;1.47;;;;;;;;;;5071432;28;20197;-82
2022/05/08 20:10:13;;;;;;;1.70;1.30;;;;;;;;;;5072768;28;20201;-83
2022/05/08 20:12:40;;;;;;;3.40;1.50;;;;;;;;;;5073044;28;20217;-82
2022/05/08 20:15:08;;;;;;;2.07;1.53;;;;;;;;;;5072419;28;20198;-83
2022/05/08 20:17:36;;;;;;;1.90;1.53;;;;;;;;;;5072821;28;20227;-82
2022/05/08 20:22:02;;;;;;;2.20;1.97;;;;;;;;;;5072570;28;20709;-83
2022/05/08 20:22:51;;;;;;;2.13;1.30;;;;;;;;;;5072743;28;20181;-82
2022/05/08 20:25:19;;;;;;;1.27;1.17;;;;;;;;;;5072828;28;20201;-82
2022/05/08 20:27:46;;;;;;;2.80;1.37;;;;;;;;;;5072341;28;20202;-82
2022/05/08 20:30:14;;;;;;;1.17;1.10;;;;;;;;;;5072223;28;20242;-82
2022/05/08 20:32:41;;;;;;;1.07;1.07;;;;;;;;;;5072919;28;20201;-82
2022/05/08 20:35:09;;;;;;;1.93;1.17;;;;;;;;;;5072610;28;20198;-82
2022/05/08 20:37:36;;;;;;;1.10;1.00;;;;;;;;;;5072423;28;20222;-83
2022/05/08 20:40:07;;;;;;;0.90;0.90;;;;;;;;;;5071956;28;20201;-83
2022/05/08 20:42:34;;;;;;;3.53;1.23;;;;;;;;;;5072049;28;20187;-82
2022/05/08 20:45:02;;;;;;;1.30;1.13;;;;;;;;;;5071973;28;20671;-82
2022/05/08 20:47:29;;;;;;;1.77;1.50;;;;;;;;;;5072379;28;20199;-82
2022/05/08 20:49:56;;;;;;;4.07;1.53;;;;;;;;;;5071937;28;20227;-83
2022/05/08 20:52:25;;;;;;;1.70;1.27;;;;;;;;;;5072251;28;20242;-83
2022/05/08 20:54:52;;;;;;;2.00;1.77;;;;;;;;;;5071453;28;20599;-83